createdAt,value
2023-05-24T00:01:10.558Z,100847.38
2023-05-24T00:04:16.288Z,100846.06
2023-05-24T00:07:21.657Z,100845.66
2023-05-24T00:10:26.931Z,100839.91
2023-05-24T00:13:32.483Z,100844.59
2023-05-24T00:16:38.025Z,100841.28
2023-05-24T00:19:43.860Z,100847.44
2023-05-24T00:22:49.366Z,100852.94
2023-05-24T00:25:55.101Z,100850.97
2023-05-24T00:29:00.531Z,100851.03
2023-05-24T00:32:06.620Z,100854.16
2023-05-24T00:35:11.896Z,100853.31
2023-05-24T00:38:17.656Z,100858.16
2023-05-24T00:41:23.296Z,100855.75
2023-05-24T00:44:29.229Z,100853.69
2023-05-24T00:47:35.047Z,100852.06
2023-05-24T00:50:42.123Z,100851.66
2023-05-24T00:53:49.202Z,100857.50
2023-05-24T00:56:57.432Z,100849.16
2023-05-24T01:00:06.232Z,100853.56
2023-05-24T01:03:11.924Z,100850.81
2023-05-24T01:06:18.108Z,100851.16
2023-05-24T01:09:34.773Z,100849.72
2023-05-24T01:12:53.988Z,100850.31
2023-05-24T01:16:15.862Z,100846.72
2023-05-24T01:19:45.095Z,100840.34
2023-05-24T01:23:27.132Z,100842.53
2023-05-24T01:26:40.592Z,100844.38
2023-05-24T01:29:53.685Z,100839.50
2023-05-24T01:32:59.089Z,100839.41
2023-05-24T01:36:05.069Z,100830.84
2023-05-24T01:39:11.671Z,100835.41
2023-05-24T01:42:25.560Z,100840.44
2023-05-24T01:45:59.937Z,100841.16
2023-05-24T01:49:23.713Z,100841.75
2023-05-24T01:52:34.106Z,100842.19
2023-05-24T01:55:41.349Z,100845.13
2023-05-24T01:58:48.064Z,100849.53
2023-05-24T02:01:54.194Z,100843.94
2023-05-24T02:05:00.070Z,100842.78
2023-05-24T02:08:06.092Z,100852.06
2023-05-24T02:11:11.327Z,100848.88
2023-05-24T02:14:20.177Z,100849.22
2023-05-24T02:17:27.125Z,100844.16
2023-05-24T02:20:37.551Z,100842.84
2023-05-24T02:23:43.573Z,100841.84
2023-05-24T02:26:49.372Z,100846.81
2023-05-24T02:29:55.021Z,100844.53
2023-05-24T02:33:01.044Z,100841.84
2023-05-24T02:36:06.765Z,100844.09
2023-05-24T02:39:12.370Z,100843.34
2023-05-24T02:42:17.798Z,100838.69
2023-05-24T02:45:23.381Z,100840.34
2023-05-24T02:48:28.931Z,100848.25
2023-05-24T02:51:34.529Z,100852.59
2023-05-24T02:54:40.145Z,100852.00
2023-05-24T02:57:45.824Z,100854.94
2023-05-24T03:00:51.508Z,100851.25
2023-05-24T03:03:59.292Z,100853.56
2023-05-24T03:07:05.017Z,100854.72
2023-05-24T03:10:11.553Z,100851.38
2023-05-24T03:13:17.701Z,100849.03
2023-05-24T03:16:23.088Z,100848.72
2023-05-24T03:19:28.385Z,100841.97
2023-05-24T03:22:35.560Z,100846.00
2023-05-24T03:25:41.875Z,100848.25
2023-05-24T03:28:48.215Z,100844.72
2023-05-24T03:31:54.375Z,100844.78
2023-05-24T03:35:01.822Z,100850.75
2023-05-24T03:38:07.437Z,100854.22
2023-05-24T03:41:15.678Z,100858.41
2023-05-24T03:44:21.416Z,100861.91
2023-05-24T03:47:27.417Z,100861.06
2023-05-24T03:50:33.020Z,100867.59
2023-05-24T03:53:38.363Z,100868.47
2023-05-24T03:56:44.184Z,100867.41
2023-05-24T03:59:49.521Z,100872.00
2023-05-24T04:02:56.330Z,100869.97
2023-05-24T04:06:02.307Z,100868.06
2023-05-24T04:09:10.355Z,100876.31
2023-05-24T04:12:15.867Z,100876.28
2023-05-24T04:15:21.642Z,100883.25
2023-05-24T04:18:27.321Z,100879.28
2023-05-24T04:21:35.229Z,100879.13
2023-05-24T04:24:42.141Z,100874.19
2023-05-24T04:27:49.101Z,100886.28
2023-05-24T04:30:55.375Z,100888.09
2023-05-24T04:34:00.956Z,100885.00
2023-05-24T04:37:06.508Z,100885.91
2023-05-24T04:40:12.457Z,100893.25
2023-05-24T04:43:18.469Z,100895.63
2023-05-24T04:46:23.743Z,100901.03
2023-05-24T04:49:29.126Z,100909.41
2023-05-24T04:52:36.934Z,100909.03
2023-05-24T04:55:43.478Z,100912.16
2023-05-24T04:58:49.446Z,100908.53
2023-05-24T05:01:55.218Z,100920.34
2023-05-24T05:05:01.148Z,100918.09
2023-05-24T05:08:06.836Z,100920.69
2023-05-24T05:11:13.158Z,100924.69
2023-05-24T05:14:18.753Z,100919.97
2023-05-24T05:17:24.379Z,100924.13
2023-05-24T05:20:30.290Z,100921.13
2023-05-24T05:23:36.619Z,100915.19
2023-05-24T05:26:42.958Z,100917.09
2023-05-24T05:29:48.679Z,100911.97
2023-05-24T05:32:54.547Z,100920.72
2023-05-24T05:36:00.904Z,100919.56
2023-05-24T05:39:06.280Z,100924.31
2023-05-24T05:42:11.997Z,100921.13
2023-05-24T05:45:17.934Z,100920.28
2023-05-24T05:48:23.921Z,100926.94
2023-05-24T05:51:29.856Z,100928.16
2023-05-24T05:54:36.244Z,100935.78
2023-05-24T05:57:41.955Z,100931.34
2023-05-24T06:00:47.636Z,100925.94
2023-05-24T06:03:53.150Z,100930.59
2023-05-24T06:06:59.020Z,100926.53
2023-05-24T06:10:04.769Z,100940.91
2023-05-24T06:13:10.670Z,100943.84
2023-05-24T06:16:16.897Z,100939.72
2023-05-24T06:19:22.464Z,100938.91
2023-05-24T06:22:31.394Z,100940.38
2023-05-24T06:25:38.882Z,100946.09
2023-05-24T06:28:45.107Z,100943.41
2023-05-24T06:31:51.024Z,100942.66
2023-05-24T06:34:56.832Z,100939.28
2023-05-24T06:38:02.336Z,100937.19
2023-05-24T06:41:09.216Z,100939.19
2023-05-24T06:44:15.229Z,100940.53
2023-05-24T06:47:22.786Z,100944.63
2023-05-24T06:50:28.683Z,100946.22
2023-05-24T06:53:34.168Z,100942.19
2023-05-24T06:56:40.186Z,100940.22
2023-05-24T06:59:46.360Z,100944.41
2023-05-24T07:02:52.237Z,100948.19
2023-05-24T07:05:58.309Z,100951.06
2023-05-24T07:09:05.303Z,100947.88
2023-05-24T07:12:11.372Z,100959.88
2023-05-24T07:15:17.012Z,100953.03
2023-05-24T07:18:22.502Z,100952.88
2023-05-24T07:21:28.015Z,100967.00
2023-05-24T07:24:33.450Z,100957.50
2023-05-24T07:27:39.277Z,100956.38
2023-05-24T07:30:45.714Z,100949.19
2023-05-24T07:33:51.333Z,100951.16
2023-05-24T07:36:59.563Z,100948.09
2023-05-24T07:40:06.969Z,100960.72
2023-05-24T07:43:13.041Z,100952.16
2023-05-24T07:46:18.870Z,100951.03
2023-05-24T07:49:25.064Z,100955.19
2023-05-24T07:52:31.545Z,100953.06
2023-05-24T07:55:36.768Z,100956.94
2023-05-24T07:58:42.198Z,100955.66
2023-05-24T08:01:48.058Z,100955.84
2023-05-24T08:04:53.882Z,100966.25
2023-05-24T08:07:59.177Z,100958.75
2023-05-24T08:11:04.311Z,100964.69
2023-05-24T08:14:09.795Z,100963.94
2023-05-24T08:17:15.212Z,100964.59
2023-05-24T08:20:21.284Z,100970.53
2023-05-24T08:23:27.241Z,100972.63
2023-05-24T08:26:33.022Z,100960.91
2023-05-24T08:29:39.579Z,100969.41
2023-05-24T08:32:44.784Z,100981.28
2023-05-24T08:35:53.343Z,100967.50
2023-05-24T08:39:00.230Z,100969.75
2023-05-24T08:42:09.273Z,100970.38
2023-05-24T08:45:16.508Z,100969.75
2023-05-24T08:48:22.734Z,100964.44
2023-05-24T08:51:28.034Z,100969.75
2023-05-24T08:54:38.079Z,100971.66
2023-05-24T08:57:46.071Z,100971.63
2023-05-24T09:00:51.658Z,100976.13
2023-05-24T09:03:57.523Z,100972.47
2023-05-24T09:07:03.283Z,100974.22
2023-05-24T09:10:10.051Z,100968.28
2023-05-24T09:13:16.296Z,100977.03
2023-05-24T09:16:22.493Z,100977.69
2023-05-24T09:19:29.282Z,100969.72
2023-05-24T09:22:38.146Z,100967.13
2023-05-24T09:25:47.213Z,100977.09
2023-05-24T09:28:56.195Z,100973.13
2023-05-24T09:32:02.625Z,100973.56
2023-05-24T09:35:09.939Z,100969.28
2023-05-24T09:38:19.751Z,100969.84
2023-05-24T09:41:25.795Z,100968.50
2023-05-24T09:44:31.455Z,100963.47
2023-05-24T09:47:39.004Z,100955.22
2023-05-24T09:50:47.996Z,100957.81
2023-05-24T09:53:58.232Z,100956.63
2023-05-24T09:57:05.192Z,100956.25
2023-05-24T10:00:17.366Z,100949.53
2023-05-24T10:03:25.544Z,100962.72
2023-05-24T10:06:35.436Z,100960.38
2023-05-24T10:09:40.994Z,100950.13
2023-05-24T10:12:47.230Z,100956.38
2023-05-24T10:15:52.523Z,100953.50
2023-05-24T10:18:57.949Z,100939.38
2023-05-24T10:22:07.727Z,100948.03
2023-05-24T10:25:22.101Z,100939.84
2023-05-24T10:28:28.600Z,100944.03
2023-05-24T10:31:39.077Z,100943.63
2023-05-24T10:34:46.291Z,100942.38
2023-05-24T10:37:52.768Z,100941.13
2023-05-24T10:41:39.245Z,100942.44
2023-05-24T10:44:45.356Z,100940.81
2023-05-24T10:47:51.314Z,100938.78
2023-05-24T10:50:57.650Z,100932.84
2023-05-24T10:54:14.008Z,100933.25
2023-05-24T10:57:25.110Z,100927.13
2023-05-24T11:00:48.378Z,100929.66
2023-05-24T11:03:54.073Z,100921.69
2023-05-24T11:07:05.690Z,100923.44
2023-05-24T11:10:17.213Z,100919.72
2023-05-24T11:13:22.858Z,100914.16
2023-05-24T11:16:40.686Z,100914.75
2023-05-24T11:19:55.981Z,100906.41
2023-05-24T11:23:12.339Z,100902.34
2023-05-24T11:26:17.583Z,100899.47
2023-05-24T11:29:23.473Z,100896.16
2023-05-24T11:32:29.489Z,100894.94
2023-05-24T11:35:34.600Z,100880.94
2023-05-24T11:38:41.450Z,100880.72
2023-05-24T11:41:48.024Z,100874.16
2023-05-24T11:44:54.054Z,100879.16
2023-05-24T11:48:05.511Z,100870.94
2023-05-24T11:51:11.884Z,100866.09
2023-05-24T11:54:19.405Z,100863.03
2023-05-24T11:57:38.635Z,100858.50
2023-05-24T12:00:44.816Z,100857.56
2023-05-24T12:03:53.993Z,100858.38
2023-05-24T12:07:00.024Z,100849.97
2023-05-24T12:10:06.902Z,100852.25
2023-05-24T12:13:26.299Z,100857.09
2023-05-24T12:16:33.547Z,100843.34
2023-05-24T12:19:39.789Z,100841.94
2023-05-24T12:22:53.014Z,100847.94
2023-05-24T12:26:02.411Z,100846.53
2023-05-24T12:29:08.123Z,100843.56
2023-05-24T12:32:14.821Z,100844.03
2023-05-24T12:35:21.501Z,100849.13
2023-05-24T12:38:27.008Z,100844.03
2023-05-24T12:41:33.713Z,100848.28
2023-05-24T12:44:40.204Z,100849.00
2023-05-24T12:47:45.461Z,100849.59
2023-05-24T12:50:51.513Z,100838.03
2023-05-24T12:53:57.450Z,100843.13
2023-05-24T12:57:03.604Z,100838.94
2023-05-24T13:00:11.046Z,100835.41
2023-05-24T13:03:17.875Z,100829.00
2023-05-24T13:06:23.605Z,100827.34
2023-05-24T13:09:29.438Z,100819.97
2023-05-24T13:12:34.930Z,100818.28
2023-05-24T13:15:42.183Z,100819.69
2023-05-24T13:18:49.915Z,100819.47
2023-05-24T13:21:55.832Z,100821.16
2023-05-24T13:25:02.951Z,100815.59
2023-05-24T13:28:08.478Z,100817.69
2023-05-24T13:31:14.716Z,100813.69
2023-05-24T13:34:20.447Z,100820.47
2023-05-24T13:37:27.481Z,100820.38
2023-05-24T13:40:33.207Z,100822.63
2023-05-24T13:43:38.737Z,100816.19
2023-05-24T13:46:44.794Z,100818.75
2023-05-24T13:49:50.314Z,100823.59
2023-05-24T13:52:56.538Z,100823.75
2023-05-24T13:56:03.129Z,100829.63
2023-05-24T14:17:50.979Z,100779.56
2023-05-24T14:20:56.530Z,100774.91
2023-05-24T14:24:01.964Z,100778.69
2023-05-24T14:27:07.690Z,100777.94
2023-05-24T14:30:13.157Z,100778.03
2023-05-24T14:33:18.730Z,100772.53
2023-05-24T14:36:24.452Z,100782.78
2023-05-24T14:39:30.413Z,100788.50
2023-05-24T14:42:36.345Z,100798.53
2023-05-24T14:45:43.244Z,100808.66
2023-05-24T14:48:49.195Z,100811.00
2023-05-24T14:51:54.725Z,100799.00
2023-05-24T14:55:00.377Z,100787.16
2023-05-24T14:58:09.546Z,100784.38
2023-05-24T15:01:15.120Z,100782.94
2023-05-24T15:04:20.649Z,100790.25
2023-05-24T15:07:26.670Z,100778.34
2023-05-24T15:10:32.821Z,100781.03
2023-05-24T15:13:38.749Z,100775.97
2023-05-24T15:16:44.179Z,100780.97
2023-05-24T15:19:49.627Z,100771.09
2023-05-24T15:22:54.769Z,100774.63
2023-05-24T15:26:00.603Z,100768.41
2023-05-24T15:29:06.109Z,100772.16
2023-05-24T15:32:11.794Z,100774.75
2023-05-24T15:35:18.068Z,100783.78
2023-05-24T15:38:23.575Z,100778.78
2023-05-24T15:41:29.004Z,100772.88
2023-05-24T15:44:34.073Z,100783.94
2023-05-24T15:47:40.673Z,100774.19
2023-05-24T15:53:54.455Z,100779.56
2023-05-24T15:57:02.118Z,100783.41
2023-05-24T16:00:08.327Z,100784.13
2023-05-24T16:03:20.404Z,100781.44
2023-05-24T16:06:26.515Z,100784.00
2023-05-24T16:09:32.382Z,100792.72
2023-05-24T16:12:37.533Z,100791.44
2023-05-24T16:15:43.207Z,100804.28
2023-05-24T16:18:48.623Z,100804.63
2023-05-24T16:21:54.950Z,100812.81
2023-05-24T16:25:01.122Z,100814.75
2023-05-24T16:28:07.330Z,100818.78
2023-05-24T16:31:13.533Z,100820.88
2023-05-24T16:34:19.558Z,100833.34
2023-05-24T16:37:25.488Z,100840.22
2023-05-24T16:40:32.619Z,100846.16
2023-05-24T16:43:38.157Z,100846.41
2023-05-24T16:46:46.808Z,100854.50
2023-05-24T16:49:52.738Z,100857.03
2023-05-24T16:52:59.897Z,100860.81
2023-05-24T16:56:05.994Z,100865.53
2023-05-24T16:59:11.938Z,100865.31
2023-05-24T17:02:17.666Z,100862.28
2023-05-24T17:05:23.306Z,100866.38
2023-05-24T17:08:30.669Z,100868.16
2023-05-24T17:11:37.723Z,100874.13
2023-05-24T17:14:44.195Z,100876.91
2023-05-24T17:17:52.966Z,100875.47
2023-05-24T17:21:04.773Z,100877.22
2023-05-24T17:24:10.843Z,100879.44
2023-05-24T17:27:19.957Z,100880.81
2023-05-24T17:30:30.695Z,100879.91
2023-05-24T17:33:38.199Z,100878.94
2023-05-24T17:36:44.986Z,100882.38
2023-05-24T17:39:53.570Z,100893.78
2023-05-24T17:42:59.929Z,100884.84
2023-05-24T17:46:09.764Z,100890.78
2023-05-24T17:49:15.165Z,100896.94
2023-05-24T17:52:20.671Z,100900.03
2023-05-24T17:55:27.477Z,100887.94
2023-05-24T17:58:37.165Z,100890.34
2023-05-24T18:01:44.232Z,100888.06
2023-05-24T18:04:53.038Z,100898.78
2023-05-24T18:08:01.567Z,100899.38
2023-05-24T18:11:11.610Z,100913.00
2023-05-24T18:14:17.447Z,100937.88
2023-05-24T18:17:23.273Z,100951.19
2023-05-24T18:20:30.301Z,100951.78
2023-05-24T18:23:40.423Z,100953.44
2023-05-24T18:26:47.702Z,100963.22
2023-05-24T18:29:54.316Z,100962.47
2023-05-24T18:36:08.833Z,100966.50
2023-05-24T18:39:14.254Z,100972.41
2023-05-24T18:42:20.963Z,100970.34
2023-05-24T18:45:26.285Z,100969.50
2023-05-24T18:48:32.971Z,100971.47
2023-05-24T18:51:41.581Z,100968.97
2023-05-24T18:54:47.051Z,100969.72
2023-05-24T18:57:55.435Z,100976.75
2023-05-24T19:01:01.214Z,100973.69
2023-05-24T19:04:08.718Z,100976.94
2023-05-24T19:07:16.889Z,100984.28
2023-05-24T19:10:24.205Z,100978.28
2023-05-24T19:13:31.827Z,100979.28
2023-05-24T19:16:38.366Z,100982.22
2023-05-24T19:19:45.513Z,100993.00
2023-05-24T19:22:51.462Z,100988.19
2023-05-24T19:26:02.527Z,100980.38
2023-05-24T19:29:10.588Z,100990.59
2023-05-24T19:32:16.318Z,100991.53
2023-05-24T19:35:23.161Z,100987.81
2023-05-24T19:38:30.326Z,100993.59
2023-05-24T19:41:41.595Z,100992.22
2023-05-24T19:44:51.076Z,100995.63
2023-05-24T19:47:56.961Z,100997.91
2023-05-24T19:51:02.206Z,101000.66
2023-05-24T19:54:09.498Z,100998.41
2023-05-24T19:57:16.458Z,101005.06
2023-05-24T20:00:24.722Z,101001.25
2023-05-24T20:03:34.764Z,101003.16
2023-05-24T20:06:43.314Z,101006.53
2023-05-24T20:09:50.507Z,101004.78
2023-05-24T20:12:57.557Z,101005.94
2023-05-24T20:16:12.046Z,101005.94
2023-05-24T20:19:21.847Z,101016.41
2023-05-24T20:22:29.879Z,101005.25
2023-05-24T20:25:37.310Z,101008.94
2023-05-24T20:28:45.497Z,101009.13
2023-05-24T20:31:51.416Z,101014.19
2023-05-24T20:34:58.862Z,101008.44
2023-05-24T20:38:04.580Z,101002.28
2023-05-24T20:41:14.140Z,101006.16
2023-05-24T20:44:20.154Z,101001.03
2023-05-24T20:47:30.290Z,100998.53
2023-05-24T20:50:37.946Z,100998.22
2023-05-24T20:53:46.190Z,101010.53
2023-05-24T20:56:52.168Z,100998.69
2023-05-24T21:00:00.221Z,100998.66
2023-05-24T21:03:11.650Z,101009.50
2023-05-24T21:06:17.186Z,101008.56
2023-05-24T21:09:22.767Z,101007.22
2023-05-24T21:12:31.162Z,101005.91
2023-05-24T21:15:38.535Z,101008.56
2023-05-24T21:18:43.827Z,101008.28
2023-05-24T21:21:49.132Z,101009.22
2023-05-24T21:24:56.140Z,101009.41
2023-05-24T21:28:02.915Z,101003.47
2023-05-24T21:31:08.059Z,101006.69
2023-05-24T21:34:13.605Z,101004.91
2023-05-24T21:37:18.841Z,101005.06
2023-05-24T21:40:24.572Z,101007.31
2023-05-24T21:43:29.907Z,101009.50
2023-05-24T21:46:36.653Z,101011.34
2023-05-24T21:49:42.391Z,101020.91
2023-05-24T21:52:47.894Z,101012.28
2023-05-24T21:55:53.218Z,101016.97
2023-05-24T21:58:58.738Z,101018.31
2023-05-24T22:02:04.431Z,101024.41
2023-05-24T22:05:10.413Z,101025.03
2023-05-24T22:08:15.818Z,101024.81
2023-05-24T22:11:21.704Z,101023.31
2023-05-24T22:14:27.336Z,101016.88
2023-05-24T22:17:33.314Z,101025.81
2023-05-24T22:20:38.932Z,101028.19
2023-05-24T22:23:44.309Z,101030.97
2023-05-24T22:26:50.195Z,101031.72
2023-05-24T22:29:56.012Z,101026.16
2023-05-24T22:33:01.998Z,101029.22
2023-05-24T22:36:07.413Z,101022.00
2023-05-24T22:39:12.731Z,101018.59
2023-05-24T22:42:18.227Z,101017.50
2023-05-24T22:45:23.573Z,101009.13
2023-05-24T22:48:28.891Z,101004.91
2023-05-24T22:51:34.406Z,101003.50
2023-05-24T22:54:39.857Z,101000.31
2023-05-24T22:57:45.178Z,101001.66
2023-05-24T23:00:51.636Z,100994.81
2023-05-24T23:04:07.770Z,101003.78
2023-05-24T23:07:23.099Z,100993.25
2023-05-24T23:10:28.346Z,101001.34
2023-05-24T23:13:36.183Z,101006.44
2023-05-24T23:16:45.984Z,101029.88
2023-05-24T23:19:51.606Z,101039.50
2023-05-24T23:22:59.291Z,101042.41
2023-05-24T23:26:04.568Z,101053.97
2023-05-24T23:29:10.381Z,101045.78
2023-05-24T23:32:15.631Z,101034.38
2023-05-24T23:35:21.377Z,101043.81
2023-05-24T23:38:26.642Z,101037.03
2023-05-24T23:41:31.823Z,101051.88
2023-05-24T23:44:37.404Z,101045.94
2023-05-24T23:47:42.611Z,101055.41
2023-05-24T23:50:54.000Z,101055.66
2023-05-24T23:54:01.295Z,101072.16
2023-05-24T23:57:07.912Z,101057.03
